sensor_id;sensor_type;location;lat;lon;timestamp;temperature;humidity
51661;DHT22;37741;49.748;8.490;2023-03-11T00:00:57;6.40;71.60
51661;DHT22;37741;49.748;8.490;2023-03-11T00:03:24;6.40;72.70
51661;DHT22;37741;49.748;8.490;2023-03-11T00:05:51;6.30;72.80
51661;DHT22;37741;49.748;8.490;2023-03-11T00:08:19;6.30;72.40
51661;DHT22;37741;49.748;8.490;2023-03-11T00:10:49;6.30;72.60
51661;DHT22;37741;49.748;8.490;2023-03-11T00:13:16;6.30;71.40
51661;DHT22;37741;49.748;8.490;2023-03-11T00:15:45;6.20;72.10
51661;DHT22;37741;49.748;8.490;2023-03-11T00:18:11;6.20;72.00
51661;DHT22;37741;49.748;8.490;2023-03-11T00:20:39;6.20;71.80
51661;DHT22;37741;49.748;8.490;2023-03-11T00:23:07;6.10;70.90
51661;DHT22;37741;49.748;8.490;2023-03-11T00:25:35;6.10;71.90
51661;DHT22;37741;49.748;8.490;2023-03-11T00:28:01;6.00;72.20
51661;DHT22;37741;49.748;8.490;2023-03-11T00:30:27;6.00;72.60
51661;DHT22;37741;49.748;8.490;2023-03-11T00:32:55;6.00;72.00
51661;DHT22;37741;49.748;8.490;2023-03-11T00:35:26;6.00;72.20
51661;DHT22;37741;49.748;8.490;2023-03-11T00:37:55;6.00;71.60
51661;DHT22;37741;49.748;8.490;2023-03-11T00:40:22;5.90;72.10
51661;DHT22;37741;49.748;8.490;2023-03-11T00:42:48;5.90;72.10
51661;DHT22;37741;49.748;8.490;2023-03-11T00:45:14;5.90;72.10
51661;DHT22;37741;49.748;8.490;2023-03-11T00:47:39;5.90;72.50
51661;DHT22;37741;49.748;8.490;2023-03-11T00:50:06;5.90;72.60
51661;DHT22;37741;49.748;8.490;2023-03-11T00:52:32;5.90;72.70
51661;DHT22;37741;49.748;8.490;2023-03-11T00:54:58;5.90;72.90
51661;DHT22;37741;49.748;8.490;2023-03-11T00:57:24;5.80;73.10
51661;DHT22;37741;49.748;8.490;2023-03-11T00:59:50;5.80;73.10
51661;DHT22;37741;49.748;8.490;2023-03-11T01:02:17;5.80;73.30
51661;DHT22;37741;49.748;8.490;2023-03-11T01:04:43;5.80;73.40
51661;DHT22;37741;49.748;8.490;2023-03-11T01:07:08;5.80;73.60
51661;DHT22;37741;49.748;8.490;2023-03-11T01:09:34;5.70;73.50
51661;DHT22;37741;49.748;8.490;2023-03-11T01:12:00;5.80;73.50
51661;DHT22;37741;49.748;8.490;2023-03-11T01:14:25;5.70;73.30
51661;DHT22;37741;49.748;8.490;2023-03-11T01:16:51;5.70;73.10
51661;DHT22;37741;49.748;8.490;2023-03-11T01:19:18;5.70;73.10
51661;DHT22;37741;49.748;8.490;2023-03-11T01:21:43;5.70;73.10
51661;DHT22;37741;49.748;8.490;2023-03-11T01:24:09;5.70;73.10
51661;DHT22;37741;49.748;8.490;2023-03-11T01:26:35;5.70;73.10
51661;DHT22;37741;49.748;8.490;2023-03-11T01:29:00;5.60;72.60
51661;DHT22;37741;49.748;8.490;2023-03-11T01:31:26;5.60;72.50
51661;DHT22;37741;49.748;8.490;2023-03-11T01:33:51;5.60;72.90
51661;DHT22;37741;49.748;8.490;2023-03-11T01:36:17;5.60;72.50
51661;DHT22;37741;49.748;8.490;2023-03-11T01:38:43;5.50;73.00
51661;DHT22;37741;49.748;8.490;2023-03-11T01:41:10;5.50;73.00
51661;DHT22;37741;49.748;8.490;2023-03-11T01:48:47;5.40;73.20
51661;DHT22;37741;49.748;8.490;2023-03-11T01:51:16;5.40;73.00
51661;DHT22;37741;49.748;8.490;2023-03-11T01:53:43;5.40;73.20
51661;DHT22;37741;49.748;8.490;2023-03-11T01:56:09;5.40;73.40
51661;DHT22;37741;49.748;8.490;2023-03-11T01:58:38;5.40;73.20
51661;DHT22;37741;49.748;8.490;2023-03-11T02:01:04;5.40;73.20
51661;DHT22;37741;49.748;8.490;2023-03-11T02:03:35;5.30;72.30
51661;DHT22;37741;49.748;8.490;2023-03-11T02:06:07;5.30;73.40
51661;DHT22;37741;49.748;8.490;2023-03-11T02:08:33;5.30;73.10
51661;DHT22;37741;49.748;8.490;2023-03-11T02:11:00;5.30;73.50
51661;DHT22;37741;49.748;8.490;2023-03-11T02:13:26;5.30;73.70
51661;DHT22;37741;49.748;8.490;2023-03-11T02:15:52;5.30;73.70
51661;DHT22;37741;49.748;8.490;2023-03-11T02:18:18;5.30;73.60
51661;DHT22;37741;49.748;8.490;2023-03-11T02:24:05;5.30;73.70
51661;DHT22;37741;49.748;8.490;2023-03-11T02:29:10;5.30;73.50
51661;DHT22;37741;49.748;8.490;2023-03-11T02:31:37;5.20;73.50
51661;DHT22;37741;49.748;8.490;2023-03-11T02:34:07;5.20;73.60
51661;DHT22;37741;49.748;8.490;2023-03-11T02:36:38;5.20;73.60
51661;DHT22;37741;49.748;8.490;2023-03-11T02:39:05;5.20;73.60
51661;DHT22;37741;49.748;8.490;2023-03-11T02:41:32;5.20;73.70
51661;DHT22;37741;49.748;8.490;2023-03-11T02:43:59;5.20;73.60
51661;DHT22;37741;49.748;8.490;2023-03-11T02:46:25;5.20;73.20
51661;DHT22;37741;49.748;8.490;2023-03-11T02:48:52;5.20;73.50
51661;DHT22;37741;49.748;8.490;2023-03-11T02:51:18;5.10;73.60
51661;DHT22;37741;49.748;8.490;2023-03-11T02:53:48;5.10;73.70
51661;DHT22;37741;49.748;8.490;2023-03-11T02:56:15;5.10;73.80
51661;DHT22;37741;49.748;8.490;2023-03-11T02:58:40;5.10;73.80
51661;DHT22;37741;49.748;8.490;2023-03-11T03:01:06;5.10;73.40
51661;DHT22;37741;49.748;8.490;2023-03-11T03:03:32;5.10;73.70
51661;DHT22;37741;49.748;8.490;2023-03-11T03:05:58;5.10;73.70
51661;DHT22;37741;49.748;8.490;2023-03-11T03:08:23;5.10;73.70
51661;DHT22;37741;49.748;8.490;2023-03-11T03:10:49;5.10;73.70
51661;DHT22;37741;49.748;8.490;2023-03-11T03:13:14;5.00;73.70
51661;DHT22;37741;49.748;8.490;2023-03-11T03:15:40;5.00;73.80
51661;DHT22;37741;49.748;8.490;2023-03-11T03:18:06;5.00;73.70
51661;DHT22;37741;49.748;8.490;2023-03-11T03:20:31;5.00;73.80
51661;DHT22;37741;49.748;8.490;2023-03-11T03:22:57;5.00;73.70
51661;DHT22;37741;49.748;8.490;2023-03-11T03:25:22;5.00;73.80
51661;DHT22;37741;49.748;8.490;2023-03-11T03:27:48;5.00;73.90
51661;DHT22;37741;49.748;8.490;2023-03-11T03:30:15;5.00;74.00
51661;DHT22;37741;49.748;8.490;2023-03-11T03:32:40;5.00;73.80
51661;DHT22;37741;49.748;8.490;2023-03-11T03:35:06;4.90;73.80
51661;DHT22;37741;49.748;8.490;2023-03-11T03:37:34;5.00;74.00
51661;DHT22;37741;49.748;8.490;2023-03-11T03:40:01;4.90;74.00
51661;DHT22;37741;49.748;8.490;2023-03-11T03:42:35;4.90;74.00
51661;DHT22;37741;49.748;8.490;2023-03-11T03:45:02;4.90;74.00
51661;DHT22;37741;49.748;8.490;2023-03-11T03:47:28;4.90;74.10
51661;DHT22;37741;49.748;8.490;2023-03-11T03:49:54;4.80;74.10
51661;DHT22;37741;49.748;8.490;2023-03-11T03:52:19;4.80;74.00
51661;DHT22;37741;49.748;8.490;2023-03-11T03:54:45;4.80;74.10
51661;DHT22;37741;49.748;8.490;2023-03-11T03:57:10;4.90;74.10
51661;DHT22;37741;49.748;8.490;2023-03-11T03:59:36;4.80;74.10
51661;DHT22;37741;49.748;8.490;2023-03-11T04:02:02;4.80;74.00
51661;DHT22;37741;49.748;8.490;2023-03-11T04:04:27;4.80;74.00
51661;DHT22;37741;49.748;8.490;2023-03-11T04:06:53;4.80;74.10
51661;DHT22;37741;49.748;8.490;2023-03-11T04:09:19;4.80;74.10
51661;DHT22;37741;49.748;8.490;2023-03-11T04:11:44;4.80;74.00
51661;DHT22;37741;49.748;8.490;2023-03-11T04:14:10;4.80;74.00
51661;DHT22;37741;49.748;8.490;2023-03-11T04:16:36;4.70;74.10
51661;DHT22;37741;49.748;8.490;2023-03-11T04:19:01;4.70;74.20
51661;DHT22;37741;49.748;8.490;2023-03-11T04:21:29;4.70;74.20
51661;DHT22;37741;49.748;8.490;2023-03-11T04:23:54;4.70;74.40
51661;DHT22;37741;49.748;8.490;2023-03-11T04:26:20;4.70;74.40
51661;DHT22;37741;49.748;8.490;2023-03-11T04:28:46;4.70;74.30
51661;DHT22;37741;49.748;8.490;2023-03-11T04:31:11;4.70;74.30
51661;DHT22;37741;49.748;8.490;2023-03-11T04:33:37;4.70;74.40
51661;DHT22;37741;49.748;8.490;2023-03-11T04:36:07;4.60;74.30
51661;DHT22;37741;49.748;8.490;2023-03-11T04:38:33;4.70;74.50
51661;DHT22;37741;49.748;8.490;2023-03-11T04:41:03;4.60;74.40
51661;DHT22;37741;49.748;8.490;2023-03-11T04:43:30;4.60;74.50
51661;DHT22;37741;49.748;8.490;2023-03-11T04:45:55;4.60;74.50
51661;DHT22;37741;49.748;8.490;2023-03-11T04:48:21;4.60;74.50
51661;DHT22;37741;49.748;8.490;2023-03-11T04:50:47;4.60;74.50
51661;DHT22;37741;49.748;8.490;2023-03-11T04:53:12;4.60;74.60
51661;DHT22;37741;49.748;8.490;2023-03-11T04:55:38;4.60;74.60
51661;DHT22;37741;49.748;8.490;2023-03-11T04:58:04;4.60;74.70
51661;DHT22;37741;49.748;8.490;2023-03-11T05:00:30;4.60;74.80
51661;DHT22;37741;49.748;8.490;2023-03-11T05:02:55;4.60;74.80
51661;DHT22;37741;49.748;8.490;2023-03-11T05:05:21;4.50;74.90
51661;DHT22;37741;49.748;8.490;2023-03-11T05:07:47;4.50;74.90
51661;DHT22;37741;49.748;8.490;2023-03-11T05:10:14;4.50;74.90
51661;DHT22;37741;49.748;8.490;2023-03-11T05:12:40;4.50;74.90
51661;DHT22;37741;49.748;8.490;2023-03-11T05:15:06;4.50;75.00
51661;DHT22;37741;49.748;8.490;2023-03-11T05:17:31;4.50;75.10
51661;DHT22;37741;49.748;8.490;2023-03-11T05:19:57;4.50;75.10
51661;DHT22;37741;49.748;8.490;2023-03-11T05:22:23;4.50;75.20
51661;DHT22;37741;49.748;8.490;2023-03-11T05:24:48;4.40;75.20
51661;DHT22;37741;49.748;8.490;2023-03-11T05:27:15;4.40;75.20
51661;DHT22;37741;49.748;8.490;2023-03-11T05:29:44;4.40;75.20
51661;DHT22;37741;49.748;8.490;2023-03-11T05:32:11;4.40;75.20
51661;DHT22;37741;49.748;8.490;2023-03-11T05:34:37;4.40;75.20
51661;DHT22;37741;49.748;8.490;2023-03-11T05:37:02;4.40;75.20
51661;DHT22;37741;49.748;8.490;2023-03-11T05:39:28;4.40;75.20
51661;DHT22;37741;49.748;8.490;2023-03-11T05:41:54;4.40;75.20
51661;DHT22;37741;49.748;8.490;2023-03-11T05:44:21;4.30;75.20
51661;DHT22;37741;49.748;8.490;2023-03-11T05:46:47;4.30;75.60
51661;DHT22;37741;49.748;8.490;2023-03-11T05:49:12;4.30;75.30
51661;DHT22;37741;49.748;8.490;2023-03-11T05:51:38;4.30;75.30
51661;DHT22;37741;49.748;8.490;2023-03-11T05:54:05;4.30;75.40
51661;DHT22;37741;49.748;8.490;2023-03-11T05:56:35;4.30;75.30
51661;DHT22;37741;49.748;8.490;2023-03-11T05:59:01;4.30;75.40
51661;DHT22;37741;49.748;8.490;2023-03-11T06:01:27;4.30;75.40
51661;DHT22;37741;49.748;8.490;2023-03-11T06:03:56;4.20;75.40
51661;DHT22;37741;49.748;8.490;2023-03-11T06:06:29;4.20;75.50
51661;DHT22;37741;49.748;8.490;2023-03-11T06:08:55;4.20;75.50
51661;DHT22;37741;49.748;8.490;2023-03-11T06:11:21;4.20;75.60
51661;DHT22;37741;49.748;8.490;2023-03-11T06:13:54;4.20;75.60
51661;DHT22;37741;49.748;8.490;2023-03-11T06:16:21;4.20;75.70
51661;DHT22;37741;49.748;8.490;2023-03-11T06:18:48;4.10;75.70
51661;DHT22;37741;49.748;8.490;2023-03-11T06:21:19;4.10;75.70
51661;DHT22;37741;49.748;8.490;2023-03-11T06:23:52;4.10;75.80
51661;DHT22;37741;49.748;8.490;2023-03-11T06:26:19;4.10;75.80
51661;DHT22;37741;49.748;8.490;2023-03-11T06:28:46;4.00;75.70
51661;DHT22;37741;49.748;8.490;2023-03-11T06:33:42;4.10;75.80
51661;DHT22;37741;49.748;8.490;2023-03-11T06:36:11;4.10;75.90
51661;DHT22;37741;49.748;8.490;2023-03-11T06:38:37;4.00;75.80
51661;DHT22;37741;49.748;8.490;2023-03-11T06:41:04;4.00;75.80
51661;DHT22;37741;49.748;8.490;2023-03-11T06:43:31;4.00;75.80
51661;DHT22;37741;49.748;8.490;2023-03-11T06:45:57;4.00;75.80
51661;DHT22;37741;49.748;8.490;2023-03-11T06:48:23;4.00;75.80
51661;DHT22;37741;49.748;8.490;2023-03-11T06:50:58;4.00;75.70
51661;DHT22;37741;49.748;8.490;2023-03-11T06:53:24;4.00;75.80
51661;DHT22;37741;49.748;8.490;2023-03-11T06:56:03;4.00;75.70
51661;DHT22;37741;49.748;8.490;2023-03-11T06:58:33;4.00;75.70
51661;DHT22;37741;49.748;8.490;2023-03-11T07:01:04;3.90;75.70
51661;DHT22;37741;49.748;8.490;2023-03-11T07:03:30;4.00;75.70
51661;DHT22;37741;49.748;8.490;2023-03-11T07:05:56;3.90;75.70
51661;DHT22;37741;49.748;8.490;2023-03-11T07:08:23;3.90;75.70
51661;DHT22;37741;49.748;8.490;2023-03-11T07:11:06;3.90;75.60
51661;DHT22;37741;49.748;8.490;2023-03-11T07:13:32;3.90;75.60
51661;DHT22;37741;49.748;8.490;2023-03-11T07:16:11;3.90;75.60
51661;DHT22;37741;49.748;8.490;2023-03-11T07:18:37;3.80;75.60
51661;DHT22;37741;49.748;8.490;2023-03-11T07:21:05;3.80;75.50
51661;DHT22;37741;49.748;8.490;2023-03-11T07:23:31;3.80;75.40
51661;DHT22;37741;49.748;8.490;2023-03-11T07:25:57;3.80;75.50
51661;DHT22;37741;49.748;8.490;2023-03-11T07:28:24;3.80;75.50
51661;DHT22;37741;49.748;8.490;2023-03-11T07:30:51;3.80;75.50
51661;DHT22;37741;49.748;8.490;2023-03-11T07:33:17;3.80;75.50
51661;DHT22;37741;49.748;8.490;2023-03-11T07:35:43;3.80;75.50
51661;DHT22;37741;49.748;8.490;2023-03-11T07:38:09;3.80;75.50
51661;DHT22;37741;49.748;8.490;2023-03-11T07:40:35;3.80;75.60
51661;DHT22;37741;49.748;8.490;2023-03-11T07:43:01;3.80;75.60
51661;DHT22;37741;49.748;8.490;2023-03-11T07:45:27;3.80;75.60
51661;DHT22;37741;49.748;8.490;2023-03-11T07:47:52;3.80;75.60
51661;DHT22;37741;49.748;8.490;2023-03-11T07:50:18;3.80;75.70
51661;DHT22;37741;49.748;8.490;2023-03-11T07:52:47;3.70;75.60
51661;DHT22;37741;49.748;8.490;2023-03-11T07:55:13;3.80;75.60
51661;DHT22;37741;49.748;8.490;2023-03-11T07:57:38;3.80;75.60
51661;DHT22;37741;49.748;8.490;2023-03-11T08:00:05;3.70;75.20
51661;DHT22;37741;49.748;8.490;2023-03-11T08:02:30;3.70;75.50
51661;DHT22;37741;49.748;8.490;2023-03-11T08:04:56;3.70;75.40
51661;DHT22;37741;49.748;8.490;2023-03-11T08:07:22;3.70;75.40
51661;DHT22;37741;49.748;8.490;2023-03-11T08:09:47;3.80;75.10
51661;DHT22;37741;49.748;8.490;2023-03-11T08:12:13;3.70;75.10
51661;DHT22;37741;49.748;8.490;2023-03-11T08:14:39;3.70;74.40
51661;DHT22;37741;49.748;8.490;2023-03-11T08:17:09;3.70;74.90
51661;DHT22;37741;49.748;8.490;2023-03-11T08:19:35;3.70;74.80
51661;DHT22;37741;49.748;8.490;2023-03-11T08:22:02;3.70;75.10
51661;DHT22;37741;49.748;8.490;2023-03-11T08:24:28;3.70;74.70
51661;DHT22;37741;49.748;8.490;2023-03-11T08:26:54;3.70;74.60
51661;DHT22;37741;49.748;8.490;2023-03-11T08:29:22;3.70;73.90
51661;DHT22;37741;49.748;8.490;2023-03-11T08:31:47;3.70;74.40
51661;DHT22;37741;49.748;8.490;2023-03-11T08:34:13;3.70;74.00
51661;DHT22;37741;49.748;8.490;2023-03-11T08:36:39;3.70;74.40
51661;DHT22;37741;49.748;8.490;2023-03-11T08:39:04;3.70;73.70
51661;DHT22;37741;49.748;8.490;2023-03-11T08:41:30;3.70;73.50
51661;DHT22;37741;49.748;8.490;2023-03-11T08:43:56;3.60;73.20
51661;DHT22;37741;49.748;8.490;2023-03-11T08:48:52;3.60;73.90
51661;DHT22;37741;49.748;8.490;2023-03-11T08:51:19;3.60;73.90
51661;DHT22;37741;49.748;8.490;2023-03-11T08:53:45;3.60;73.40
51661;DHT22;37741;49.748;8.490;2023-03-11T08:56:10;3.60;73.50
51661;DHT22;37741;49.748;8.490;2023-03-11T08:58:36;3.60;73.80
51661;DHT22;37741;49.748;8.490;2023-03-11T09:01:03;3.70;73.90
51661;DHT22;37741;49.748;8.490;2023-03-11T09:03:32;3.60;73.60
51661;DHT22;37741;49.748;8.490;2023-03-11T09:06:00;3.70;73.20
51661;DHT22;37741;49.748;8.490;2023-03-11T09:08:26;3.70;72.50
51661;DHT22;37741;49.748;8.490;2023-03-11T09:10:52;3.70;71.90
51661;DHT22;37741;49.748;8.490;2023-03-11T09:13:18;3.70;72.80
51661;DHT22;37741;49.748;8.490;2023-03-11T09:15:44;3.70;72.10
51661;DHT22;37741;49.748;8.490;2023-03-11T09:18:14;3.70;72.70
51661;DHT22;37741;49.748;8.490;2023-03-11T09:20:41;3.70;72.60
51661;DHT22;37741;49.748;8.490;2023-03-11T09:23:07;3.70;73.30
51661;DHT22;37741;49.748;8.490;2023-03-11T09:25:33;3.70;72.90
51661;DHT22;37741;49.748;8.490;2023-03-11T09:27:59;3.70;72.20
51661;DHT22;37741;49.748;8.490;2023-03-11T09:30:24;3.70;72.50
51661;DHT22;37741;49.748;8.490;2023-03-11T09:32:50;3.70;71.90
51661;DHT22;37741;49.748;8.490;2023-03-11T09:35:16;3.70;72.60
51661;DHT22;37741;49.748;8.490;2023-03-11T09:37:41;3.70;72.70
51661;DHT22;37741;49.748;8.490;2023-03-11T09:40:08;3.70;72.60
51661;DHT22;37741;49.748;8.490;2023-03-11T09:42:47;3.70;72.30
51661;DHT22;37741;49.748;8.490;2023-03-11T09:45:18;3.70;72.70
51661;DHT22;37741;49.748;8.490;2023-03-11T09:48:17;3.70;73.10
51661;DHT22;37741;49.748;8.490;2023-03-11T09:50:57;3.70;73.20
51661;DHT22;37741;49.748;8.490;2023-03-11T09:53:45;3.70;71.80
51661;DHT22;37741;49.748;8.490;2023-03-11T09:56:18;3.70;71.90
51661;DHT22;37741;49.748;8.490;2023-03-11T10:01:31;3.70;72.50
51661;DHT22;37741;49.748;8.490;2023-03-11T10:04:25;3.80;73.20
51661;DHT22;37741;49.748;8.490;2023-03-11T10:06:51;3.80;73.60
51661;DHT22;37741;49.748;8.490;2023-03-11T10:09:37;3.80;73.40
51661;DHT22;37741;49.748;8.490;2023-03-11T10:20:51;3.90;72.40
51661;DHT22;37741;49.748;8.490;2023-03-11T10:23:36;3.90;71.90
51661;DHT22;37741;49.748;8.490;2023-03-11T10:26:16;3.90;71.70
51661;DHT22;37741;49.748;8.490;2023-03-11T10:28:51;3.90;70.20
51661;DHT22;37741;49.748;8.490;2023-03-11T10:31:35;3.90;71.60
51661;DHT22;37741;49.748;8.490;2023-03-11T10:34:12;3.90;71.80
51661;DHT22;37741;49.748;8.490;2023-03-11T10:37:00;3.90;71.30
51661;DHT22;37741;49.748;8.490;2023-03-11T10:39:29;3.90;71.00
51661;DHT22;37741;49.748;8.490;2023-03-11T10:42:09;4.00;71.90
51661;DHT22;37741;49.748;8.490;2023-03-11T10:44:38;4.00;71.40
51661;DHT22;37741;49.748;8.490;2023-03-11T10:47:04;3.90;71.30
51661;DHT22;37741;49.748;8.490;2023-03-11T10:49:30;4.00;70.10
51661;DHT22;37741;49.748;8.490;2023-03-11T10:51:56;4.00;70.90
51661;DHT22;37741;49.748;8.490;2023-03-11T10:54:29;4.00;71.60
51661;DHT22;37741;49.748;8.490;2023-03-11T10:57:01;4.00;72.10
51661;DHT22;37741;49.748;8.490;2023-03-11T10:59:44;4.00;71.40
51661;DHT22;37741;49.748;8.490;2023-03-11T11:02:33;4.10;72.10
51661;DHT22;37741;49.748;8.490;2023-03-11T11:05:27;4.10;72.30
51661;DHT22;37741;49.748;8.490;2023-03-11T11:08:07;4.00;72.40
51661;DHT22;37741;49.748;8.490;2023-03-11T11:10:35;4.10;72.40
51661;DHT22;37741;49.748;8.490;2023-03-11T11:15:49;4.20;72.10
51661;DHT22;37741;49.748;8.490;2023-03-11T11:18:43;4.20;70.70
51661;DHT22;37741;49.748;8.490;2023-03-11T11:21:10;4.20;69.70
51661;DHT22;37741;49.748;8.490;2023-03-11T11:26:23;4.20;69.10
51661;DHT22;37741;49.748;8.490;2023-03-11T11:31:34;4.30;69.40
51661;DHT22;37741;49.748;8.490;2023-03-11T11:34:00;4.20;68.90
51661;DHT22;37741;49.748;8.490;2023-03-11T11:36:31;4.30;68.70
51661;DHT22;37741;49.748;8.490;2023-03-11T11:38:59;4.30;69.50
51661;DHT22;37741;49.748;8.490;2023-03-11T11:41:35;4.30;68.80
51661;DHT22;37741;49.748;8.490;2023-03-11T11:44:05;4.30;68.30
51661;DHT22;37741;49.748;8.490;2023-03-11T11:46:38;4.30;68.30
51661;DHT22;37741;49.748;8.490;2023-03-11T11:51:53;4.30;69.30
51661;DHT22;37741;49.748;8.490;2023-03-11T11:54:30;4.40;67.70
51661;DHT22;37741;49.748;8.490;2023-03-11T11:56:58;4.40;69.50
51661;DHT22;37741;49.748;8.490;2023-03-11T11:59:24;4.40;70.00
51661;DHT22;37741;49.748;8.490;2023-03-11T12:13:32;4.50;67.40
51661;DHT22;37741;49.748;8.490;2023-03-11T12:15:59;4.60;68.80
51661;DHT22;37741;49.748;8.490;2023-03-11T12:18:36;4.60;69.00
51661;DHT22;37741;49.748;8.490;2023-03-11T12:21:17;4.60;68.30
51661;DHT22;37741;49.748;8.490;2023-03-11T12:24:10;4.60;68.50
51661;DHT22;37741;49.748;8.490;2023-03-11T12:26:39;4.70;69.30
51661;DHT22;37741;49.748;8.490;2023-03-11T12:29:32;4.70;69.40
51661;DHT22;37741;49.748;8.490;2023-03-11T12:32:00;4.70;68.50
51661;DHT22;37741;49.748;8.490;2023-03-11T12:34:27;4.70;69.60
51661;DHT22;37741;49.748;8.490;2023-03-11T12:36:57;4.80;69.50
51661;DHT22;37741;49.748;8.490;2023-03-11T12:39:32;4.80;69.40
51661;DHT22;37741;49.748;8.490;2023-03-11T12:42:14;4.80;68.80
51661;DHT22;37741;49.748;8.490;2023-03-11T12:44:40;4.80;69.30
51661;DHT22;37741;49.748;8.490;2023-03-11T12:49:42;4.90;69.60
51661;DHT22;37741;49.748;8.490;2023-03-11T12:57:54;5.00;68.90
51661;DHT22;37741;49.748;8.490;2023-03-11T13:08:53;5.20;68.70
51661;DHT22;37741;49.748;8.490;2023-03-11T13:11:48;5.20;68.40
51661;DHT22;37741;49.748;8.490;2023-03-11T13:14:26;5.30;65.10
51661;DHT22;37741;49.748;8.490;2023-03-11T13:16:53;5.30;65.50
51661;DHT22;37741;49.748;8.490;2023-03-11T13:21:52;5.40;66.20
51661;DHT22;37741;49.748;8.490;2023-03-11T13:29:59;5.40;65.80
51661;DHT22;37741;49.748;8.490;2023-03-11T13:35:27;5.50;64.50
51661;DHT22;37741;49.748;8.490;2023-03-11T13:38:10;5.50;64.40
51661;DHT22;37741;49.748;8.490;2023-03-11T13:40:40;5.50;65.30
51661;DHT22;37741;49.748;8.490;2023-03-11T13:43:24;5.40;64.90
51661;DHT22;37741;49.748;8.490;2023-03-11T13:46:00;5.50;64.40
51661;DHT22;37741;49.748;8.490;2023-03-11T13:48:43;5.50;64.10
51661;DHT22;37741;49.748;8.490;2023-03-11T13:53:46;5.50;64.90
51661;DHT22;37741;49.748;8.490;2023-03-11T13:56:38;5.50;64.50
51661;DHT22;37741;49.748;8.490;2023-03-11T13:59:30;5.50;64.60
51661;DHT22;37741;49.748;8.490;2023-03-11T14:02:45;5.50;66.00
51661;DHT22;37741;49.748;8.490;2023-03-11T14:05:14;5.50;66.00
51661;DHT22;37741;49.748;8.490;2023-03-11T14:07:40;5.50;64.20
51661;DHT22;37741;49.748;8.490;2023-03-11T14:12:44;5.60;65.10
51661;DHT22;37741;49.748;8.490;2023-03-11T14:15:19;5.60;65.40
51661;DHT22;37741;49.748;8.490;2023-03-11T14:17:46;5.60;65.40
51661;DHT22;37741;49.748;8.490;2023-03-11T14:20:20;5.60;65.00
51661;DHT22;37741;49.748;8.490;2023-03-11T14:22:50;5.60;66.10
51661;DHT22;37741;49.748;8.490;2023-03-11T14:25:24;5.60;66.90
51661;DHT22;37741;49.748;8.490;2023-03-11T14:27:57;5.60;67.20
51661;DHT22;37741;49.748;8.490;2023-03-11T14:30:31;5.60;66.50
51661;DHT22;37741;49.748;8.490;2023-03-11T14:35:25;5.70;64.30
51661;DHT22;37741;49.748;8.490;2023-03-11T14:37:50;5.70;64.00
51661;DHT22;37741;49.748;8.490;2023-03-11T14:40:29;5.70;64.80
51661;DHT22;37741;49.748;8.490;2023-03-11T14:43:00;5.80;64.30
51661;DHT22;37741;49.748;8.490;2023-03-11T14:45:32;5.80;64.70
51661;DHT22;37741;49.748;8.490;2023-03-11T14:48:12;5.80;65.60
51661;DHT22;37741;49.748;8.490;2023-03-11T14:50:39;5.80;65.90
51661;DHT22;37741;49.748;8.490;2023-03-11T14:53:16;5.80;65.40
51661;DHT22;37741;49.748;8.490;2023-03-11T14:55:48;5.80;65.50
51661;DHT22;37741;49.748;8.490;2023-03-11T14:58:30;5.90;63.70
51661;DHT22;37741;49.748;8.490;2023-03-11T15:01:09;5.90;64.80
51661;DHT22;37741;49.748;8.490;2023-03-11T15:03:40;6.00;64.40
51661;DHT22;37741;49.748;8.490;2023-03-11T15:06:15;6.00;62.80
51661;DHT22;37741;49.748;8.490;2023-03-11T15:08:47;6.00;62.50
51661;DHT22;37741;49.748;8.490;2023-03-11T15:13:44;6.20;65.20
51661;DHT22;37741;49.748;8.490;2023-03-11T15:16:31;6.20;63.20
51661;DHT22;37741;49.748;8.490;2023-03-11T15:21:47;6.20;63.10
51661;DHT22;37741;49.748;8.490;2023-03-11T15:24:22;6.20;63.80
51661;DHT22;37741;49.748;8.490;2023-03-11T15:27:03;6.30;64.30
51661;DHT22;37741;49.748;8.490;2023-03-11T15:29:30;6.30;65.00
51661;DHT22;37741;49.748;8.490;2023-03-11T15:31:56;6.30;63.80
51661;DHT22;37741;49.748;8.490;2023-03-11T15:34:31;6.30;63.80
51661;DHT22;37741;49.748;8.490;2023-03-11T15:37:03;6.40;62.50
51661;DHT22;37741;49.748;8.490;2023-03-11T15:44:48;6.40;63.20
51661;DHT22;37741;49.748;8.490;2023-03-11T15:47:20;6.50;63.30
51661;DHT22;37741;49.748;8.490;2023-03-11T15:49:46;6.40;63.90
51661;DHT22;37741;49.748;8.490;2023-03-11T15:52:13;6.50;62.40
51661;DHT22;37741;49.748;8.490;2023-03-11T15:54:39;6.50;62.90
51661;DHT22;37741;49.748;8.490;2023-03-11T15:57:08;6.60;62.10
51661;DHT22;37741;49.748;8.490;2023-03-11T15:59:35;6.60;61.50
51661;DHT22;37741;49.748;8.490;2023-03-11T16:02:02;6.60;61.60
51661;DHT22;37741;49.748;8.490;2023-03-11T16:04:28;6.60;62.00
51661;DHT22;37741;49.748;8.490;2023-03-11T16:06:53;6.70;62.20
51661;DHT22;37741;49.748;8.490;2023-03-11T16:09:19;6.70;61.90
51661;DHT22;37741;49.748;8.490;2023-03-11T16:11:45;6.70;62.40
51661;DHT22;37741;49.748;8.490;2023-03-11T16:14:18;6.70;62.00
51661;DHT22;37741;49.748;8.490;2023-03-11T16:16:45;6.70;63.00
51661;DHT22;37741;49.748;8.490;2023-03-11T16:19:11;6.70;62.00
51661;DHT22;37741;49.748;8.490;2023-03-11T16:21:41;6.70;60.00
51661;DHT22;37741;49.748;8.490;2023-03-11T16:24:14;6.70;62.30
51661;DHT22;37741;49.748;8.490;2023-03-11T16:26:41;6.70;62.10
51661;DHT22;37741;49.748;8.490;2023-03-11T16:29:06;6.70;62.60
51661;DHT22;37741;49.748;8.490;2023-03-11T16:31:32;6.70;62.40
51661;DHT22;37741;49.748;8.490;2023-03-11T16:33:59;6.70;62.20
51661;DHT22;37741;49.748;8.490;2023-03-11T16:36:24;6.80;61.80
51661;DHT22;37741;49.748;8.490;2023-03-11T16:38:50;6.80;62.90
51661;DHT22;37741;49.748;8.490;2023-03-11T16:41:16;6.80;63.30
51661;DHT22;37741;49.748;8.490;2023-03-11T16:43:42;6.90;62.60
51661;DHT22;37741;49.748;8.490;2023-03-11T16:46:08;6.90;63.40
51661;DHT22;37741;49.748;8.490;2023-03-11T16:48:36;6.80;63.40
51661;DHT22;37741;49.748;8.490;2023-03-11T16:51:02;6.80;62.30
51661;DHT22;37741;49.748;8.490;2023-03-11T16:53:28;6.80;61.20
51661;DHT22;37741;49.748;8.490;2023-03-11T16:55:54;6.70;62.30
51661;DHT22;37741;49.748;8.490;2023-03-11T16:58:19;6.70;63.40
51661;DHT22;37741;49.748;8.490;2023-03-11T17:00:45;6.70;62.60
51661;DHT22;37741;49.748;8.490;2023-03-11T17:03:13;6.70;62.30
51661;DHT22;37741;49.748;8.490;2023-03-11T17:05:39;6.70;62.70
51661;DHT22;37741;49.748;8.490;2023-03-11T17:08:05;6.70;63.40
51661;DHT22;37741;49.748;8.490;2023-03-11T17:10:36;6.70;63.70
51661;DHT22;37741;49.748;8.490;2023-03-11T17:13:03;6.60;63.00
51661;DHT22;37741;49.748;8.490;2023-03-11T17:15:29;6.60;62.20
51661;DHT22;37741;49.748;8.490;2023-03-11T17:17:54;6.60;63.00
51661;DHT22;37741;49.748;8.490;2023-03-11T17:20:20;6.60;61.20
51661;DHT22;37741;49.748;8.490;2023-03-11T17:22:45;6.60;61.50
51661;DHT22;37741;49.748;8.490;2023-03-11T17:25:11;6.50;62.60
51661;DHT22;37741;49.748;8.490;2023-03-11T17:27:37;6.50;63.50
51661;DHT22;37741;49.748;8.490;2023-03-11T17:30:04;6.50;63.50
51661;DHT22;37741;49.748;8.490;2023-03-11T17:32:30;6.50;63.30